Time;durP1;ratioP1;P1;durP2;ratioP2;P2;SDS_P1;SDS_P2;PMS_P1;PMS_P2;Temp;Humidity;BMP_temperature;BMP_pressure;BME280_temperature;BME280_humidity;BME280_pressure;Samples;Min_cycle;Max_cycle;Signal;HPM_P1;HPM_P2
2022/11/12 00:00:00;;;;;;;;;;;;;;;6.17;96.00;98430.00;30001;983;1862;-58
2022/11/12 00:01:48;;;;;;;;;;;;;;;6.19;96.03;98432.47;89971;930;33000;-58
2022/11/12 00:02:19;;;;;;;;;;;;;;;6.17;95.84;98434.56;30001;983;1868;-59
2022/11/12 00:02:50;;;;;;;;;;;;;;;6.17;95.66;98434.56;30001;983;1854;-58
2022/11/12 00:03:21;;;;;;;;;;;;;;;6.17;95.33;98431.87;30001;983;1880;-58
2022/11/12 00:03:52;;;;;;;;;;;;;;;6.18;95.29;98441.62;30001;983;1876;-70
2022/11/12 00:04:23;;;;;;;;;;;;;;;6.16;94.82;98439.13;30001;983;1880;-60
2022/11/12 00:04:53;;;;;;;;;;;;;;;6.15;94.83;98437.50;30001;983;1876;-58
2022/11/12 00:05:25;;;;;;;;;;;;;;;6.15;95.08;98439.37;30001;983;1881;-58
2022/11/12 00:05:56;;;;;;;;;;;;;;;6.15;95.03;98436.69;30001;983;1877;-59
2022/11/12 00:06:27;;;;;;;;;;;;;;;6.15;95.04;98440.19;30001;982;1881;-58
2022/11/12 00:06:58;;;;;;;;;;;;;;;6.17;94.73;98442.66;30001;982;1876;-58
2022/11/12 00:07:28;;;;;;;;;;;;;;;6.20;94.68;98443.03;30001;982;1881;-58
2022/11/12 00:08:00;;;;;;;;;;;;;;;6.17;94.26;98438.09;30001;982;1863;-57
2022/11/12 00:08:31;;;;;;;;;;;;;;;6.16;94.49;98438.31;30001;982;1872;-59
2022/11/12 00:09:02;;;;;;;;;;;;;;;6.11;94.25;98436.31;30001;982;1877;-58
2022/11/12 00:09:33;;;;;;;;;;;;;;;6.08;94.51;98435.94;30001;967;1905;-59
2022/11/12 00:10:04;;;;;;;;;;;;;;;6.10;94.53;98439.22;30001;983;1876;-59
2022/11/12 00:10:35;;;;;;;;;;;;;;;6.09;94.37;98432.19;30001;983;1880;-60
2022/11/12 00:11:06;;;;;;;;;;;;;;;6.07;94.62;98429.72;30001;983;1876;-59
2022/11/12 00:11:37;;;;;;;;;;;;;;;6.03;94.92;98440.13;30001;983;1880;-67
2022/11/12 00:12:08;;;;;;;;;;;;;;;6.01;94.76;98431.44;30001;983;1876;-71
2022/11/12 00:12:39;;;;;;;;;;;;;;;5.99;94.92;98430.00;30001;983;1867;-60
2022/11/12 00:13:12;;;;;;;;;;;;;;;5.96;95.04;98425.91;30001;983;1868;-60
2022/11/12 00:13:43;;;;;;;;;;;;;;;5.93;95.29;98431.72;30001;983;1881;-60
2022/11/12 00:14:14;;;;;;;;;;;;;;;5.89;95.70;98430.53;30001;982;1876;-60
2022/11/12 00:14:45;;;;;;;;;;;;;;;5.86;95.37;98422.91;30001;982;1881;-60
2022/11/12 00:15:16;;;;;;;;;;;;;;;5.86;95.49;98425.59;30001;962;1814;-59
2022/11/12 00:17:04;;;;;;;;;;;;;;;5.82;96.15;98427.09;89969;930;35000;-69
2022/11/12 00:17:36;;;;;;;;;;;;;;;5.81;96.48;98419.22;30001;982;1868;-66
2022/11/12 00:18:09;;;;;;;;;;;;;;;5.80;96.92;98423.78;30001;982;1855;-70
2022/11/12 00:18:42;;;;;;;;;;;;;;;5.80;97.38;98423.78;30001;985;1872;-58
2022/11/12 00:19:13;;;;;;;;;;;;;;;5.81;97.18;98424.63;30001;982;1868;-58
2022/11/12 00:19:47;;;;;;;;;;;;;;;5.80;97.10;98423.78;30001;982;1868;-58
2022/11/12 00:20:19;;;;;;;;;;;;;;;5.81;96.89;98425.44;30001;982;1882;-58
2022/11/12 00:20:49;;;;;;;;;;;;;;;5.83;96.68;98422.53;30001;982;1877;-58
2022/11/12 00:21:20;;;;;;;;;;;;;;;5.83;97.17;98417.13;30001;983;1881;-58
2022/11/12 00:21:55;;;;;;;;;;;;;;;5.84;96.72;98418.78;30001;983;1877;-58
2022/11/12 00:22:26;;;;;;;;;;;;;;;5.83;96.94;98428.72;30001;983;1881;-59
2022/11/12 00:22:57;;;;;;;;;;;;;;;5.84;96.88;98426.88;30001;983;1877;-58
2022/11/12 00:23:28;;;;;;;;;;;;;;;5.84;96.84;98419.59;30001;983;1881;-58
2022/11/12 00:24:00;;;;;;;;;;;;;;;5.84;97.04;98419.59;30001;983;1877;-67
2022/11/12 00:24:31;;;;;;;;;;;;;;;5.88;96.88;98426.19;30001;983;1868;-59
2022/11/12 00:25:03;;;;;;;;;;;;;;;5.90;96.38;98424.09;30001;982;1868;-59
2022/11/12 00:25:34;;;;;;;;;;;;;;;5.90;96.10;98423.28;30001;982;1881;-59
2022/11/12 00:26:05;;;;;;;;;;;;;;;5.87;96.17;98424.53;30001;982;1877;-66
2022/11/12 00:26:36;;;;;;;;;;;;;;;5.86;95.99;98428.28;30001;982;1881;-58
2022/11/12 00:27:06;;;;;;;;;;;;;;;5.89;96.25;98424.34;30001;982;1877;-58
2022/11/12 00:27:37;;;;;;;;;;;;;;;5.87;96.07;98429.94;30001;982;1882;-66
2022/11/12 00:28:09;;;;;;;;;;;;;;;5.87;96.30;98424.53;30001;982;1877;-58
2022/11/12 00:28:40;;;;;;;;;;;;;;;5.87;96.34;98423.72;30001;983;1881;-59
2022/11/12 00:29:11;;;;;;;;;;;;;;;5.87;96.08;98424.53;30001;983;1876;-58
2022/11/12 00:29:42;;;;;;;;;;;;;;;5.88;95.77;98420.81;30001;983;1868;-58
2022/11/12 00:30:15;;;;;;;;;;;;;;;5.87;95.48;98421.03;30001;983;1868;-58
2022/11/12 00:30:46;;;;;;;;;;;;;;;5.88;95.96;98425.38;30001;983;1881;-67
2022/11/12 00:32:26;;;;;;;;;;;;;;;5.85;95.78;98423.94;89986;930;18000;-58
2022/11/12 00:33:00;;;;;;;;;;;;;;;5.87;95.86;98429.94;30001;962;1888;-57
2022/11/12 00:33:31;;;;;;;;;;;;;;;5.85;95.70;98429.34;30001;983;1867;-59
2022/11/12 00:34:02;;;;;;;;;;;;;;;5.84;95.76;98429.56;30001;983;1880;-66
2022/11/12 00:34:33;;;;;;;;;;;;;;;5.83;95.67;98422.53;30001;983;1876;-58
2022/11/12 00:35:05;;;;;;;;;;;;;;;5.81;95.38;98422.75;30001;983;1867;-58
2022/11/12 00:35:35;;;;;;;;;;;;;;;5.80;95.48;98428.34;30001;983;1868;-58
2022/11/12 00:36:12;;;;;;;;;;;;;;;5.80;95.58;98433.75;30001;983;1881;-59
2022/11/12 00:36:42;;;;;;;;;;;;;;;5.80;95.27;98421.09;30001;983;1876;-59
2022/11/12 00:37:13;;;;;;;;;;;;;;;5.82;95.50;98421.69;30001;982;1881;-70
2022/11/12 00:37:45;;;;;;;;;;;;;;;5.79;95.47;98427.53;30001;985;1876;-68
2022/11/12 00:38:16;;;;;;;;;;;;;;;5.78;95.32;98428.59;30001;982;1881;-58
2022/11/12 00:38:47;;;;;;;;;;;;;;;5.77;95.60;98424.25;30001;982;1877;-58
2022/11/12 00:39:18;;;;;;;;;;;;;;;5.77;95.56;98429.63;30001;982;1881;-67
2022/11/12 00:39:49;;;;;;;;;;;;;;;5.76;95.79;98421.78;30001;985;1868;-58
2022/11/12 00:40:20;;;;;;;;;;;;;;;5.78;95.80;98425.88;30001;982;1868;-58
2022/11/12 00:40:51;;;;;;;;;;;;;;;5.77;95.34;98423.41;30001;983;1867;-68
2022/11/12 00:41:24;;;;;;;;;;;;;;;5.77;95.21;98420.72;30001;983;1880;-67
2022/11/12 00:41:55;;;;;;;;;;;;;;;5.80;94.97;98429.19;30001;983;1876;-58
2022/11/12 00:42:29;;;;;;;;;;;;;;;5.80;94.84;98422.97;30001;983;1880;-66
2022/11/12 00:43:00;;;;;;;;;;;;;;;5.78;94.81;98422.38;30001;983;1876;-67
2022/11/12 00:43:32;;;;;;;;;;;;;;;5.77;95.22;98426.13;30001;985;1881;-58
2022/11/12 00:44:04;;;;;;;;;;;;;;;5.75;95.18;98425.50;30001;983;1876;-57
2022/11/12 00:44:35;;;;;;;;;;;;;;;5.73;94.93;98428.44;30001;983;1867;-58
2022/11/12 00:45:06;;;;;;;;;;;;;;;5.72;95.17;98422.22;30001;982;1868;-58
2022/11/12 00:45:37;;;;;;;;;;;;;;;5.75;95.02;98426.34;30001;982;1881;-68
2022/11/12 00:46:08;;;;;;;;;;;;;;;5.73;94.96;98417.66;30001;982;1877;-59
2022/11/12 00:47:47;;;;;;;;;;;;;;;5.69;95.26;98421.84;89987;930;17000;-59
2022/11/12 00:48:18;;;;;;;;;;;;;;;5.67;95.39;98421.25;30001;982;1868;-58
2022/11/12 00:48:49;;;;;;;;;;;;;;;5.67;95.43;98424.75;30001;982;1868;-58
2022/11/12 00:49:20;;;;;;;;;;;;;;;5.68;95.15;98421.00;30001;982;1881;-70
2022/11/12 00:49:51;;;;;;;;;;;;;;;5.68;95.40;98420.19;30001;982;1863;-58
2022/11/12 00:50:22;;;;;;;;;;;;;;;5.67;95.40;98427.44;30001;983;1871;-58
2022/11/12 00:51:00;;;;;;;;;;;;;;;5.64;95.55;98425.19;30001;983;1876;-58
2022/11/12 00:51:30;;;;;;;;;;;;;;;5.66;95.16;98427.66;30001;983;1880;-59
2022/11/12 00:52:01;;;;;;;;;;;;;;;5.65;95.35;98420.63;30001;983;1876;-58
2022/11/12 00:52:32;;;;;;;;;;;;;;;5.66;95.26;98430.37;30001;983;1880;-59
2022/11/12 00:53:03;;;;;;;;;;;;;;;5.64;95.49;98424.38;30001;983;1876;-58
2022/11/12 00:53:34;;;;;;;;;;;;;;;5.63;95.12;98423.56;30001;983;1881;-58
2022/11/12 00:54:05;;;;;;;;;;;;;;;5.61;95.18;98422.94;30001;983;1876;-59
2022/11/12 00:54:36;;;;;;;;;;;;;;;5.60;95.20;98425.88;30001;983;1881;-60
2022/11/12 00:55:08;;;;;;;;;;;;;;;5.59;94.98;98427.75;30001;982;1863;-58
2022/11/12 00:55:39;;;;;;;;;;;;;;;5.59;95.30;98425.03;30001;982;1779;-58
2022/11/12 00:56:09;;;;;;;;;;;;;;;5.59;95.30;98432.31;30001;982;1876;-58
2022/11/12 00:56:40;;;;;;;;;;;;;;;5.57;95.07;98431.69;30001;982;1817;-58
2022/11/12 00:57:11;;;;;;;;;;;;;;;5.55;95.31;98426.53;30001;982;1877;-58
2022/11/12 00:57:42;;;;;;;;;;;;;;;5.54;95.22;98418.72;30001;983;1880;-58
2022/11/12 00:58:13;;;;;;;;;;;;;;;5.52;95.73;98418.09;30001;983;1876;-58
2022/11/12 00:58:43;;;;;;;;;;;;;;;5.50;95.77;98418.34;30001;983;1880;-58
2022/11/12 00:59:14;;;;;;;;;;;;;;;5.49;96.11;98418.56;30001;983;1876;-58
2022/11/12 00:59:45;;;;;;;;;;;;;;;5.46;96.31;98422.50;30001;983;1881;-58
2022/11/12 01:00:17;;;;;;;;;;;;;;;5.46;96.41;98416.31;30001;983;1863;-66
2022/11/12 01:00:48;;;;;;;;;;;;;;;5.45;96.24;98420.03;30001;983;1871;-58
2022/11/12 01:01:20;;;;;;;;;;;;;;;5.43;96.72;98416.75;30001;983;1876;-69
2022/11/12 01:03:10;;;;;;;;;;;;;;;5.42;96.37;98417.78;89965;930;39000;-58
2022/11/12 01:03:41;;;;;;;;;;;;;;;5.41;96.68;98416.13;30001;986;1868;-58
2022/11/12 01:04:12;;;;;;;;;;;;;;;5.41;96.71;98413.44;30001;982;1868;-58
2022/11/12 01:04:43;;;;;;;;;;;;;;;5.38;96.44;98410.16;30001;982;1881;-58
2022/11/12 01:05:14;;;;;;;;;;;;;;;5.37;96.64;98413.06;30001;982;1877;-58
2022/11/12 01:05:45;;;;;;;;;;;;;;;5.41;96.56;98408.87;30001;982;1881;-58
2022/11/12 01:06:19;;;;;;;;;;;;;;;5.41;96.41;98410.75;30001;983;1876;-66
2022/11/12 01:06:50;;;;;;;;;;;;;;;5.42;95.98;98415.09;30001;983;1880;-57
2022/11/12 01:07:20;;;;;;;;;;;;;;;5.40;96.25;98412.62;30001;983;1876;-58
2022/11/12 01:07:51;;;;;;;;;;;;;;;5.39;96.32;98414.50;30001;983;1880;-58
2022/11/12 01:08:23;;;;;;;;;;;;;;;5.38;96.12;98410.16;30001;983;1863;-57
2022/11/12 01:08:55;;;;;;;;;;;;;;;5.38;95.94;98412.84;30001;983;1872;-57
2022/11/12 01:09:26;;;;;;;;;;;;;;;5.36;96.14;98406.84;30001;983;1876;-59
2022/11/12 01:09:57;;;;;;;;;;;;;;;5.36;96.07;98401.47;30001;983;1880;-59
2022/11/12 01:10:28;;;;;;;;;;;;;;;5.36;96.25;98412.25;30001;982;1876;-60
2022/11/12 01:11:09;;;;;;;;;;;;;;;5.35;96.68;98409.78;30001;982;1785;-59
2022/11/12 01:11:41;;;;;;;;;;;;;;;5.35;96.53;98399.00;30001;982;1876;-59
2022/11/12 01:12:15;;;;;;;;;;;;;;;5.35;96.33;98404.41;30001;982;1881;-60
2022/11/12 01:12:45;;;;;;;;;;;;;;;5.35;96.33;98415.16;30001;982;1876;-59
2022/11/12 01:13:16;;;;;;;;;;;;;;;5.38;96.44;98410.16;30001;982;1881;-60
2022/11/12 01:13:52;;;;;;;;;;;;;;;5.42;96.25;98423.16;30001;983;1863;-59
2022/11/12 01:14:23;;;;;;;;;;;;;;;5.43;96.01;98411.34;30001;983;1858;-59
2022/11/12 01:14:54;;;;;;;;;;;;;;;5.44;95.62;98413.00;30001;983;1876;-59
2022/11/12 01:15:25;;;;;;;;;;;;;;;5.42;95.71;98415.91;30001;983;1880;-59
2022/11/12 01:15:56;;;;;;;;;;;;;;;5.42;95.69;98423.16;30001;983;1876;-59
2022/11/12 01:16:29;;;;;;;;;;;;;;;5.43;95.81;98412.19;30001;983;1880;-60
2022/11/12 01:28:35;;;;;;;;;;;;;;;5.32;97.10;98416.41;89919;930;43000;-58
2022/11/12 01:29:06;;;;;;;;;;;;;;;5.32;96.80;98418.28;30001;983;1872;-57
2022/11/12 01:29:37;;;;;;;;;;;;;;;5.29;96.69;98411.47;30001;982;1871;-60
2022/11/12 01:30:10;;;;;;;;;;;;;;;5.28;96.22;98409.84;30001;982;1884;-59
2022/11/12 01:30:41;;;;;;;;;;;;;;;5.29;96.44;98411.47;30001;982;1867;-67
2022/11/12 01:31:17;;;;;;;;;;;;;;;5.27;95.81;98408.19;30001;982;1875;-68
2022/11/12 01:31:48;;;;;;;;;;;;;;;5.25;95.89;98415.66;30001;982;1880;-58
2022/11/12 01:32:38;;;;;;;;;;;;;;;5.23;95.71;98412.38;30001;986;1875;-59
2022/11/12 01:33:09;;;;;;;;;;;;;;;5.20;95.76;98417.38;30001;983;1883;-58
2022/11/12 01:33:41;;;;;;;;;;;;;;;5.17;95.56;98410.59;30001;983;1879;-59
2022/11/12 01:34:15;;;;;;;;;;;;;;;5.15;95.89;98411.84;30001;983;1883;-59
2022/11/12 01:34:46;;;;;;;;;;;;;;;5.13;95.82;98411.25;30001;983;1879;-59
2022/11/12 01:35:17;;;;;;;;;;;;;;;5.10;96.20;98406.31;30001;983;1883;-59
2022/11/12 01:35:48;;;;;;;;;;;;;;;5.09;96.21;98410.03;30001;983;1866;-67
2022/11/12 01:36:22;;;;;;;;;;;;;;;5.06;96.09;98405.91;30001;983;1875;-57
2022/11/12 01:36:53;;;;;;;;;;;;;;;5.04;95.75;98408.00;30001;983;1879;-57
2022/11/12 01:37:24;;;;;;;;;;;;;;;5.05;95.86;98409.66;30001;982;1884;-58
2022/11/12 01:37:55;;;;;;;;;;;;;;;5.03;95.48;98403.66;30001;982;1880;-66
2022/11/12 01:38:25;;;;;;;;;;;;;;;5.01;95.63;98400.37;30001;982;1884;-59
2022/11/12 01:38:56;;;;;;;;;;;;;;;4.99;95.67;98399.75;30001;982;1880;-67
2022/11/12 01:39:27;;;;;;;;;;;;;;;4.99;95.80;98405.16;30001;982;1884;-57
2022/11/12 01:39:58;;;;;;;;;;;;;;;4.98;95.52;98404.31;30001;983;1879;-58
2022/11/12 01:40:29;;;;;;;;;;;;;;;4.97;96.03;98404.53;30001;983;1883;-57
2022/11/12 01:40:59;;;;;;;;;;;;;;;4.95;96.09;98403.94;30001;983;1866;-67
2022/11/12 01:41:32;;;;;;;;;;;;;;;4.95;95.80;98403.94;30001;983;1875;-59
2022/11/12 01:42:03;;;;;;;;;;;;;;;4.96;95.91;98402.88;30001;983;1879;-57
2022/11/12 01:42:36;;;;;;;;;;;;;;;4.95;96.01;98393.16;30001;983;1884;-69
2022/11/12 01:43:13;;;;;;;;;;;;;;;4.95;95.92;98396.69;30001;983;1880;-58
2022/11/12 01:43:44;;;;;;;;;;;;;;;4.93;96.10;98396.09;30001;983;1884;-66
2022/11/12 01:44:17;;;;;;;;;;;;;;;4.95;96.09;98398.56;30001;983;1879;-58
2022/11/12 01:44:50;;;;;;;;;;;;;;;4.95;96.07;98393.16;30001;982;1884;-69
2022/11/12 01:45:23;;;;;;;;;;;;;;;4.97;95.76;98391.09;30001;982;1880;-59
2022/11/12 01:45:54;;;;;;;;;;;;;;;4.97;96.06;98393.78;30001;982;1884;-60
2022/11/12 01:46:27;;;;;;;;;;;;;;;4.98;95.75;98392.72;30001;961;1784;-59
2022/11/12 01:47:18;;;;;;;;;;;;;;;4.99;96.04;98391.69;30001;982;1875;-58
2022/11/12 01:48:58;;;;;;;;;;;;;;;5.02;95.69;98393.94;89991;930;13000;-57
2022/11/12 01:49:31;;;;;;;;;;;;;;;5.00;95.36;98390.66;30001;982;1868;-58
2022/11/12 01:50:14;;;;;;;;;;;;;;;5.00;95.59;98388.78;30001;982;1868;-58
2022/11/12 01:50:46;;;;;;;;;;;;;;;5.00;95.81;98385.25;30001;982;1867;-58
2022/11/12 01:51:18;;;;;;;;;;;;;;;5.01;95.65;98387.75;30001;983;1866;-59
2022/11/12 01:51:50;;;;;;;;;;;;;;;5.02;95.15;98381.31;30001;983;1879;-58
2022/11/12 01:52:31;;;;;;;;;;;;;;;5.03;95.30;98382.12;30001;983;1875;-60
2022/11/12 01:53:05;;;;;;;;;;;;;;;5.04;94.87;98376.53;30001;983;1879;-58
2022/11/12 01:53:41;;;;;;;;;;;;;;;5.05;95.08;98374.66;30001;983;1875;-58
2022/11/12 01:54:14;;;;;;;;;;;;;;;5.05;94.87;98383.56;30001;983;1879;-59
2022/11/12 01:54:48;;;;;;;;;;;;;;;5.04;94.96;98381.91;30001;983;1875;-58
2022/11/12 01:55:22;;;;;;;;;;;;;;;5.04;94.85;98381.09;30001;983;1879;-58
2022/11/12 01:55:54;;;;;;;;;;;;;;;5.04;95.01;98375.72;30001;983;1862;-58
2022/11/12 01:56:28;;;;;;;;;;;;;;;5.03;94.99;98379.44;30001;982;1871;-58
2022/11/12 01:57:00;;;;;;;;;;;;;;;5.02;95.50;98381.31;30001;982;1875;-58
2022/11/12 01:57:36;;;;;;;;;;;;;;;5.00;95.79;98385.25;30001;982;1879;-59
2022/11/12 01:58:08;;;;;;;;;;;;;;;4.98;95.91;98384.66;30001;982;1875;-58
2022/11/12 01:58:40;;;;;;;;;;;;;;;4.96;95.80;98376.00;30001;982;1880;-58
2022/11/12 01:59:13;;;;;;;;;;;;;;;4.95;96.17;98382.41;30001;983;1874;-58
2022/11/12 01:59:46;;;;;;;;;;;;;;;4.95;95.93;98377.03;30001;983;1879;-58
2022/11/12 02:00:17;;;;;;;;;;;;;;;4.96;96.00;98384.87;30001;983;1875;-58
2022/11/12 02:00:48;;;;;;;;;;;;;;;4.96;95.88;98379.50;30001;983;1879;-58
2022/11/12 02:01:19;;;;;;;;;;;;;;;4.97;95.75;98383.03;30001;983;1862;-58
2022/11/12 02:01:50;;;;;;;;;;;;;;;4.97;95.84;98386.53;30001;983;1870;-58
2022/11/12 02:02:21;;;;;;;;;;;;;;;4.98;95.77;98387.34;30001;983;1875;-58
2022/11/12 02:14:32;;;;;;;;;;;;;;;4.93;96.87;98368.34;89919;358;43000;-57
2022/11/12 02:15:03;;;;;;;;;;;;;;;4.92;97.32;98372.91;30001;983;1864;-59
2022/11/12 02:15:34;;;;;;;;;;;;;;;4.92;97.49;98372.91;30001;983;1868;-68
2022/11/12 02:16:06;;;;;;;;;;;;;;;4.94;97.47;98378.06;30001;983;1876;-67
2022/11/12 02:16:40;;;;;;;;;;;;;;;4.94;97.71;98376.22;30001;983;1877;-61
2022/11/12 02:17:11;;;;;;;;;;;;;;;4.95;97.53;98371.66;30001;983;1876;-57
2022/11/12 02:17:42;;;;;;;;;;;;;;;4.95;97.55;98366.28;30001;983;1877;-60
2022/11/12 02:19:20;;;;;;;;;;;;;;;4.96;96.84;98367.91;89989;930;15000;-58
2022/11/12 02:19:52;;;;;;;;;;;;;;;4.97;96.59;98369.56;30001;982;1868;-56
2022/11/12 02:20:23;;;;;;;;;;;;;;;4.97;96.35;98365.00;30001;982;1855;-56
2022/11/12 02:20:56;;;;;;;;;;;;;;;4.97;96.05;98358.81;30001;982;1882;-60
2022/11/12 02:21:27;;;;;;;;;;;;;;;4.98;96.03;98366.66;30001;982;1877;-59
2022/11/12 02:21:58;;;;;;;;;;;;;;;4.98;95.32;98365.84;30001;983;1880;-58
2022/11/12 02:22:29;;;;;;;;;;;;;;;4.99;95.43;98362.09;30001;983;1876;-58
2022/11/12 02:23:00;;;;;;;;;;;;;;;4.98;94.86;98361.28;30001;983;1880;-57
2022/11/12 02:23:31;;;;;;;;;;;;;;;5.00;95.31;98363.75;30001;983;1876;-58
2022/11/12 02:24:04;;;;;;;;;;;;;;;4.99;94.89;98357.53;30001;968;1859;-67
2022/11/12 02:24:35;;;;;;;;;;;;;;;4.98;94.91;98355.91;30001;983;1876;-57
2022/11/12 02:25:08;;;;;;;;;;;;;;;4.97;94.60;98358.81;30001;983;1881;-58
2022/11/12 02:25:39;;;;;;;;;;;;;;;4.96;94.67;98351.78;30001;983;1863;-57
2022/11/12 02:26:10;;;;;;;;;;;;;;;4.95;94.98;98360.88;30001;983;1872;-58
2022/11/12 02:26:43;;;;;;;;;;;;;;;4.93;94.73;98358.44;30001;986;1877;-56
2022/11/12 02:27:14;;;;;;;;;;;;;;;4.92;94.88;98362.16;30001;982;1881;-70
2022/11/12 02:27:54;;;;;;;;;;;;;;;4.92;95.00;98355.94;30001;982;1877;-67
2022/11/12 02:28:26;;;;;;;;;;;;;;;4.90;95.01;98360.72;30001;982;1881;-67
2022/11/12 02:28:56;;;;;;;;;;;;;;;4.88;95.19;98365.50;30001;985;1877;-70
2022/11/12 02:29:30;;;;;;;;;;;;;;;4.87;95.34;98362.00;30001;983;1880;-60
2022/11/12 02:30:01;;;;;;;;;;;;;;;4.86;95.44;98364.91;30001;983;1876;-70
2022/11/12 02:30:33;;;;;;;;;;;;;;;4.86;95.18;98364.91;30001;983;1880;-60
2022/11/12 02:31:07;;;;;;;;;;;;;;;4.84;95.39;98358.94;30001;983;1863;-67
2022/11/12 02:31:38;;;;;;;;;;;;;;;4.84;95.48;98364.31;30001;986;1859;-71
2022/11/12 02:32:10;;;;;;;;;;;;;;;4.83;95.13;98360.00;30001;983;1876;-67
2022/11/12 02:32:41;;;;;;;;;;;;;;;4.84;95.00;98364.31;30001;983;1881;-59
2022/11/12 02:33:13;;;;;;;;;;;;;;;4.84;95.28;98351.69;30001;983;1876;-69
2022/11/12 02:34:52;;;;;;;;;;;;;;;4.85;94.93;98360.59;89987;930;17000;-59
2022/11/12 02:35:25;;;;;;;;;;;;;;;4.84;95.05;98356.25;30001;982;1828;-58
2022/11/12 02:35:56;;;;;;;;;;;;;;;4.82;95.12;98356.47;30001;982;1869;-58
2022/11/12 02:36:27;;;;;;;;;;;;;;;4.83;95.04;98357.31;30001;982;1882;-59
2022/11/12 02:37:01;;;;;;;;;;;;;;;4.82;95.22;98361.84;30001;982;1864;-58
2022/11/12 02:37:32;;;;;;;;;;;;;;;4.82;95.22;98356.47;30001;983;1872;-58
2022/11/12 02:38:04;;;;;;;;;;;;;;;4.81;95.26;98354.81;30001;983;1877;-58
2022/11/12 02:38:34;;;;;;;;;;;;;;;4.82;95.27;98355.66;30001;983;1881;-59
2022/11/12 02:39:06;;;;;;;;;;;;;;;4.82;95.29;98366.41;30001;983;1877;-58
2022/11/12 02:39:37;;;;;;;;;;;;;;;4.81;95.57;98354.00;30001;983;1881;-58
2022/11/12 02:40:09;;;;;;;;;;;;;;;4.81;95.50;98357.53;30001;983;1864;-58
2022/11/12 02:40:40;;;;;;;;;;;;;;;4.82;95.35;98361.03;30001;983;1872;-58
2022/11/12 02:41:11;;;;;;;;;;;;;;;4.81;95.37;98357.53;30001;983;1877;-58
2022/11/12 02:41:42;;;;;;;;;;;;;;;4.82;95.44;98361.03;30001;983;1881;-59
2022/11/12 02:42:12;;;;;;;;;;;;;;;4.82;95.43;98355.66;30001;982;1788;-58
2022/11/12 02:42:43;;;;;;;;;;;;;;;4.81;95.13;98359.38;30001;982;1881;-58
2022/11/12 02:43:14;;;;;;;;;;;;;;;4.81;95.30;98364.75;30001;986;1877;-60
2022/11/12 02:43:45;;;;;;;;;;;;;;;4.82;95.17;98361.84;30001;982;1882;-58
2022/11/12 02:44:16;;;;;;;;;;;;;;;4.83;94.98;98358.12;30001;982;1877;-58
2022/11/12 02:44:47;;;;;;;;;;;;;;;4.82;94.74;98361.03;30001;983;1868;-57
2022/11/12 02:45:18;;;;;;;;;;;;;;;4.83;94.73;98357.31;30001;983;1868;-57
2022/11/12 02:45:49;;;;;;;;;;;;;;;4.83;94.57;98360.00;30001;983;1881;-58
2022/11/12 02:46:20;;;;;;;;;;;;;;;4.85;94.58;98365.97;30001;983;1877;-58
2022/11/12 02:46:51;;;;;;;;;;;;;;;4.84;94.55;98362.47;30001;983;1881;-58
2022/11/12 02:47:22;;;;;;;;;;;;;;;4.85;94.66;98361.38;30001;983;1877;-58
2022/11/12 02:47:53;;;;;;;;;;;;;;;4.84;94.42;98354.37;30001;983;1882;-67
2022/11/12 02:48:24;;;;;;;;;;;;;;;4.84;94.36;98367.00;30001;983;1877;-58
2022/11/12 03:00:26;;;;;;;;;;;;;;;4.71;94.76;98351.81;89919;930;43000;-92
2022/11/12 03:01:40;;;;;;;;;;;;;;;4.70;95.09;98353.66;30001;982;1872;-90
2022/11/12 03:02:41;;;;;;;;;;;;;;;4.62;94.50;98350.41;30001;986;1849;-92
2022/11/12 03:03:33;;;;;;;;;;;;;;;4.60;94.58;98353.31;30001;987;1875;-93
2022/11/12 03:04:11;;;;;;;;;;;;;;;4.58;94.91;98354.59;30001;983;1878;-90
2022/11/12 03:04:47;;;;;;;;;;;;;;;4.55;94.83;98355.84;30001;987;1870;-92
2022/11/12 03:05:35;;;;;;;;;;;;;;;4.56;95.14;98356.66;30001;987;1876;-92
2022/11/12 03:06:41;;;;;;;;;;;;;;;;;;;;;
2022/11/12 03:07:53;;;;;;;;;;;;;;;4.52;95.32;98350.91;30001;982;1862;-91
2022/11/12 03:09:36;;;;;;;;;;;;;;;;;;;;;
2022/11/12 03:10:47;;;;;;;;;;;;;;;;;;;;;
2022/11/12 03:12:03;;;;;;;;;;;;;;;;;;;;;
2022/11/12 03:13:22;;;;;;;;;;;;;;;4.40;95.59;98368.78;30001;987;1854;-91
2022/11/12 03:15:06;;;;;;;;;;;;;;;4.31;95.49;98356.66;30001;986;1876;-93
2022/11/12 03:16:30;;;;;;;;;;;;;;;4.39;95.66;98369.84;30001;982;1880;-91
2022/11/12 03:18:03;;;;;;;;;;;;;;;4.38;95.79;98371.69;30001;987;1858;-94
2022/11/12 03:19:26;;;;;;;;;;;;;;;;;;;;;
2022/11/12 03:20:59;;;;;;;;;;;;;;;4.37;95.58;98364.69;30001;987;1876;-92
2022/11/12 03:22:20;;;;;;;;;;;;;;;4.37;95.58;98363.84;30001;985;1863;-94
2022/11/12 03:23:17;;;;;;;;;;;;;;;4.38;95.46;98360.13;30001;987;1858;-94
2022/11/12 03:23:47;;;;;;;;;;;;;;;4.35;95.47;98365.94;30001;982;1871;-93
2022/11/12 03:24:19;;;;;;;;;;;;;;;4.35;95.36;98360.56;30001;982;1876;-92
2022/11/12 03:24:55;;;;;;;;;;;;;;;4.35;95.26;98368.63;30001;982;1880;-93
2022/11/12 03:25:44;;;;;;;;;;;;;;;4.32;94.90;98363.69;30001;983;1875;-94
2022/11/12 03:26:49;;;;;;;;;;;;;;;4.29;95.09;98366.78;30001;983;1880;-93
2022/11/12 03:27:35;;;;;;;;;;;;;;;4.27;94.98;98366.19;30001;983;1875;-91
2022/11/12 03:28:25;;;;;;;;;;;;;;;4.28;95.27;98365.16;30001;983;1866;-92
2022/11/12 03:29:15;;;;;;;;;;;;;;;4.27;95.20;98363.50;30001;985;1858;-91
2022/11/12 03:30:22;;;;;;;;;;;;;;;;;;;;;
2022/11/12 03:31:42;;;;;;;;;;;;;;;;;;;;;
2022/11/12 03:33:18;;;;;;;;;;;;;;;;;;;;;
2022/11/12 03:36:19;;;;;;;;;;;;;;;;;;;;;
2022/11/12 03:37:34;;;;;;;;;;;;;;;4.06;93.30;98350.41;30001;985;1857;-92
2022/11/12 03:39:20;;;;;;;;;;;;;;;3.97;93.54;98357.91;30001;986;1845;-92
2022/11/12 03:40:31;;;;;;;;;;;;;;;3.92;93.99;98361.22;30001;987;1866;-91
2022/11/12 03:41:12;;;;;;;;;;;;;;;3.90;94.50;98355.22;30001;983;1858;-91
2022/11/12 03:41:49;;;;;;;;;;;;;;;3.88;94.44;98351.94;30001;983;1866;-92
2022/11/12 03:42:20;;;;;;;;;;;;;;;3.86;94.68;98359.38;30001;987;1871;-92
2022/11/12 03:42:55;;;;;;;;;;;;;;;3.86;94.83;98359.38;30001;987;1871;-93
2022/11/12 03:43:26;;;;;;;;;;;;;;;3.85;94.90;98357.72;30001;983;1880;-91
2022/11/12 03:44:02;;;;;;;;;;;;;;;3.84;94.93;98358.78;30001;983;1862;-91
2022/11/12 03:44:46;;;;;;;;;;;;;;;3.87;95.25;98361.03;30001;987;1862;-91
2022/11/12 03:45:38;;;;;;;;;;;;;;;3.89;95.07;98366.19;30001;987;1871;-90
2022/11/12 03:46:44;;;;;;;;;;;;;;;;;;;;;
2022/11/12 03:48:08;;;;;;;;;;;;;;;3.79;94.50;98355.94;30001;985;1854;-92
2022/11/12 03:50:00;;;;;;;;;;;;;;;;;;;;;
2022/11/12 03:51:25;;;;;;;;;;;;;;;3.71;95.00;98356.16;30001;986;1858;-95
2022/11/12 03:53:03;;;;;;;;;;;;;;;3.69;95.22;98366.28;30001;986;1844;-92
2022/11/12 03:54:27;;;;;;;;;;;;;;;3.72;95.16;98365.88;30001;986;1858;-92
2022/11/12 04:08:53;;;;;;;;;;;;;;;;;;;;;
2022/11/12 04:10:29;;;;;;;;;;;;;;;;;;;;;
2022/11/12 04:11:55;;;;;;;;;;;;;;;;;;;;;
2022/11/12 04:13:40;;;;;;;;;;;;;;;;;;;;;
2022/11/12 04:21:55;;;;;;;;;;;;;;;3.84;96.63;98369.50;30001;983;1862;-58
2022/11/12 04:22:26;;;;;;;;;;;;;;;3.85;96.38;98370.34;30001;983;1867;-60
2022/11/12 04:22:57;;;;;;;;;;;;;;;3.85;96.08;98365.78;30001;983;1876;-60
2022/11/12 04:23:28;;;;;;;;;;;;;;;3.86;95.88;98372.81;30001;983;1876;-60
2022/11/12 04:23:59;;;;;;;;;;;;;;;3.88;95.59;98365.38;30001;983;1863;-58
2022/11/12 04:26:23;;;;;;;;;;;;;;;3.85;94.62;98371.16;30001;982;1876;-59
2022/11/12 04:28:01;;;;;;;;;;;;;;;3.81;94.58;98369.94;89989;930;15000;-58
2022/11/12 04:28:32;;;;;;;;;;;;;;;3.80;94.38;98368.31;30001;982;1869;-58
2022/11/12 04:30:41;;;;;;;;;;;;;;;3.81;94.26;98369.94;30001;982;1868;-58
2022/11/12 04:31:13;;;;;;;;;;;;;;;3.82;94.59;98368.06;30001;983;1880;-58
2022/11/12 04:31:43;;;;;;;;;;;;;;;3.80;94.78;98362.94;30001;983;1876;-58
2022/11/12 04:32:15;;;;;;;;;;;;;;;3.80;95.04;98371.00;30001;983;1880;-58
2022/11/12 04:32:51;;;;;;;;;;;;;;;3.77;95.11;98368.75;30001;983;1876;-70
2022/11/12 04:33:22;;;;;;;;;;;;;;;3.76;95.33;98366.28;30001;983;1880;-58
2022/11/12 04:33:53;;;;;;;;;;;;;;;3.75;95.40;98365.44;30001;983;1867;-58
2022/11/12 04:34:30;;;;;;;;;;;;;;;3.75;95.02;98360.06;30001;983;1876;-58
2022/11/12 04:35:01;;;;;;;;;;;;;;;3.73;95.35;98356.78;30001;983;1868;-58
2022/11/12 04:35:32;;;;;;;;;;;;;;;3.74;95.25;98361.13;30001;982;1876;-58
2022/11/12 04:36:03;;;;;;;;;;;;;;;3.71;94.89;98356.16;30001;982;1881;-58
2022/11/12 04:36:33;;;;;;;;;;;;;;;3.72;95.27;98354.31;30001;982;1885;-57
2022/11/12 04:37:05;;;;;;;;;;;;;;;3.72;95.39;98354.31;30001;982;1807;-59
2022/11/12 04:37:45;;;;;;;;;;;;;;;3.70;95.25;98357.19;30001;982;1885;-59
2022/11/12 04:38:16;;;;;;;;;;;;;;;3.67;95.33;98358.44;30001;982;1881;-58